createdAt,value
2022-11-15T00:01:58.150Z,165.63
2022-11-15T00:04:44.607Z,147.60
2022-11-15T00:07:54.117Z,143.45
2022-11-15T00:10:39.228Z,141.63
2022-11-15T00:13:24.815Z,136.27
2022-11-15T00:16:14.394Z,135.02
2022-11-15T00:19:00.195Z,135.57
2022-11-15T00:21:45.903Z,144.05
2022-11-15T00:24:33.648Z,125.30
2022-11-15T00:27:21.587Z,129.55
2022-11-15T00:30:07.896Z,135.68
2022-11-15T00:32:53.634Z,144.80
2022-11-15T00:35:39.021Z,122.85
2022-11-15T00:38:24.874Z,130.85
2022-11-15T00:41:10.793Z,129.70
2022-11-15T00:43:56.473Z,125.75
2022-11-15T00:46:42.059Z,112.80
2022-11-15T00:49:28.207Z,126.68
2022-11-15T00:52:13.884Z,111.20
2022-11-15T00:54:59.771Z,125.35
2022-11-15T00:57:48.445Z,118.32
2022-11-15T01:00:34.360Z,123.28
2022-11-15T01:03:20.151Z,119.50
2022-11-15T01:06:07.144Z,114.78
2022-11-15T01:08:52.390Z,124.00
2022-11-15T01:11:38.132Z,86.38
2022-11-15T01:14:25.564Z,89.35
2022-11-15T01:17:11.509Z,109.32
2022-11-15T01:19:56.863Z,122.87
2022-11-15T01:22:42.489Z,122.38
2022-11-15T01:25:28.344Z,118.30
2022-11-15T01:28:14.793Z,124.15
2022-11-15T01:31:01.569Z,119.10
2022-11-15T01:33:48.287Z,110.60
2022-11-15T01:36:33.846Z,120.82
2022-11-15T01:39:22.591Z,125.85
2022-11-15T01:42:13.436Z,122.68
2022-11-15T01:44:59.512Z,113.47
2022-11-15T01:47:49.973Z,118.75
2022-11-15T01:50:35.897Z,118.57
2022-11-15T01:53:25.160Z,102.43
2022-11-15T01:56:16.699Z,114.88
2022-11-15T01:59:05.035Z,109.82
2022-11-15T02:01:51.565Z,111.60
2022-11-15T02:07:32.275Z,104.50
2022-11-15T02:10:20.682Z,101.22
2022-11-15T02:13:06.671Z,106.13
2022-11-15T02:16:23.311Z,109.78
2022-11-15T02:19:29.742Z,103.55
2022-11-15T02:22:31.082Z,109.13
2022-11-15T02:25:40.908Z,98.93
2022-11-15T02:28:43.023Z,104.05
2022-11-15T02:31:32.040Z,105.82
2022-11-15T02:34:30.307Z,101.88
2022-11-15T02:37:22.473Z,108.55
2022-11-15T02:40:52.685Z,100.95
2022-11-15T02:43:58.568Z,102.15
2022-11-15T02:47:16.013Z,100.00
2022-11-15T02:50:25.565Z,107.53
2022-11-15T02:53:11.399Z,106.13
2022-11-15T02:56:00.094Z,85.30
2022-11-15T02:59:12.768Z,94.35
2022-11-15T03:02:29.556Z,106.40
2022-11-15T03:05:39.766Z,106.28
2022-11-15T03:08:55.928Z,113.70
2022-11-15T03:11:51.676Z,99.85
2022-11-15T03:15:03.904Z,103.80
2022-11-15T03:18:22.859Z,95.40
2022-11-15T03:21:12.395Z,102.72
2022-11-15T03:24:01.938Z,112.05
2022-11-15T03:26:49.221Z,115.32
2022-11-15T03:29:39.062Z,117.35
2022-11-15T03:32:29.175Z,114.18
2022-11-15T03:35:27.987Z,113.47
2022-11-15T03:38:36.014Z,120.15
2022-11-15T03:41:33.678Z,113.53
2022-11-15T03:44:47.217Z,124.63
2022-11-15T03:47:50.802Z,121.95
2022-11-15T03:50:37.587Z,123.47
2022-11-15T03:53:23.170Z,139.77
2022-11-15T03:56:08.847Z,159.55
2022-11-15T03:58:54.654Z,135.75
2022-11-15T04:01:40.481Z,127.50
2022-11-15T04:04:28.411Z,164.07
2022-11-15T04:07:14.062Z,136.77
2022-11-15T04:10:06.576Z,182.65
2022-11-15T04:12:52.534Z,191.98
2022-11-15T04:15:40.246Z,142.73
2022-11-15T04:18:25.975Z,154.80
2022-11-15T04:21:30.703Z,164.15
2022-11-15T04:24:16.538Z,175.02
2022-11-15T04:27:02.123Z,209.90
2022-11-15T04:29:48.069Z,159.50
2022-11-15T04:32:33.670Z,173.32
2022-11-15T04:35:19.570Z,169.77
2022-11-15T04:38:07.762Z,101.88
2022-11-15T04:40:53.510Z,134.30
2022-11-15T04:43:39.076Z,144.02
2022-11-15T04:46:25.468Z,153.10
2022-11-15T04:52:01.318Z,156.38
2022-11-15T04:54:46.970Z,172.35
2022-11-15T04:57:32.572Z,149.50
2022-11-15T05:00:18.325Z,156.60
2022-11-15T05:03:22.977Z,187.82
2022-11-15T05:06:08.548Z,127.30
2022-11-15T05:08:54.776Z,147.02
2022-11-15T05:11:41.489Z,155.82
2022-11-15T05:14:27.306Z,162.60
2022-11-15T05:17:13.330Z,160.43
2022-11-15T05:19:59.022Z,163.07
2022-11-15T05:22:44.322Z,203.57
2022-11-15T05:25:30.151Z,117.72
2022-11-15T05:28:15.577Z,159.25
2022-11-15T05:31:10.265Z,120.72
2022-11-15T05:33:57.809Z,121.50
2022-11-15T05:36:46.910Z,143.20
2022-11-15T05:39:32.730Z,112.25
2022-11-15T05:42:19.832Z,139.60
2022-11-15T05:45:07.663Z,106.68
2022-11-15T05:47:55.669Z,108.72
2022-11-15T05:50:45.395Z,153.15
2022-11-15T05:53:31.854Z,114.18
2022-11-15T05:56:17.848Z,106.25
2022-11-15T05:59:04.801Z,122.55
2022-11-15T06:01:50.439Z,128.52
2022-11-15T06:07:22.413Z,116.82
2022-11-15T06:10:08.973Z,120.15
2022-11-15T06:15:46.134Z,128.55
2022-11-15T06:18:34.959Z,145.90
2022-11-15T06:21:21.001Z,159.20
2022-11-15T06:24:07.189Z,128.38
2022-11-15T06:26:53.768Z,126.00
2022-11-15T06:29:39.077Z,155.90
2022-11-15T06:32:24.759Z,197.40
2022-11-15T06:35:10.005Z,135.23
2022-11-15T06:37:56.150Z,128.30
2022-11-15T06:40:41.981Z,177.60
2022-11-15T06:43:27.878Z,180.82
2022-11-15T06:46:13.439Z,153.68
2022-11-15T06:48:59.491Z,163.95
2022-11-15T06:51:44.924Z,117.40
2022-11-15T06:54:30.696Z,134.35
2022-11-15T06:57:16.490Z,143.93
2022-11-15T07:00:07.086Z,126.00
2022-11-15T07:02:52.464Z,178.90
2022-11-15T07:05:40.852Z,136.60
2022-11-15T07:08:29.298Z,164.07
2022-11-15T07:11:15.695Z,144.05
2022-11-15T07:14:01.426Z,173.70
2022-11-15T07:19:33.128Z,137.50
2022-11-15T07:22:19.460Z,105.88
2022-11-15T07:28:01.023Z,149.07
2022-11-15T07:30:47.034Z,103.95
2022-11-15T07:33:34.158Z,127.40
2022-11-15T07:36:20.024Z,136.10
2022-11-15T07:39:05.907Z,146.10
2022-11-15T07:42:11.376Z,155.80
2022-11-15T07:44:57.393Z,151.32
2022-11-15T07:47:47.143Z,133.32
2022-11-15T07:50:35.427Z,157.18
2022-11-15T07:53:21.070Z,149.48
2022-11-15T07:56:08.662Z,129.90
2022-11-15T07:58:58.534Z,137.77
2022-11-15T08:01:44.431Z,181.00
2022-11-15T08:04:29.798Z,113.45
2022-11-15T08:07:15.775Z,180.88
2022-11-15T08:10:06.939Z,135.45
2022-11-15T08:13:03.496Z,134.15
2022-11-15T08:15:52.259Z,120.15
2022-11-15T08:18:42.716Z,139.48
2022-11-15T08:21:28.293Z,165.98
2022-11-15T08:24:14.441Z,166.02
2022-11-15T08:26:59.920Z,136.55
2022-11-15T08:29:47.283Z,120.82
2022-11-15T08:32:33.234Z,168.00
2022-11-15T08:35:22.584Z,127.97
2022-11-15T08:38:10.556Z,130.48
2022-11-15T08:41:03.085Z,147.88
2022-11-15T08:43:48.836Z,144.50
2022-11-15T08:49:23.049Z,106.10
2022-11-15T08:52:09.167Z,141.43
2022-11-15T08:54:54.860Z,119.88
2022-11-15T09:00:26.843Z,132.00
2022-11-15T09:03:12.886Z,124.00
2022-11-15T09:06:01.350Z,149.05
2022-11-15T09:08:48.423Z,134.60
2022-11-15T09:11:35.248Z,208.38
2022-11-15T09:14:20.970Z,146.18
2022-11-15T09:17:09.825Z,122.05
2022-11-15T09:19:55.882Z,142.18
2022-11-15T09:22:41.743Z,140.90
2022-11-15T09:25:27.417Z,151.32
2022-11-15T09:28:13.034Z,94.32
2022-11-15T09:31:05.353Z,131.23
2022-11-15T09:33:50.632Z,129.40
2022-11-15T09:36:39.689Z,136.52
2022-11-15T09:39:25.151Z,136.80
2022-11-15T09:42:32.829Z,138.63
2022-11-15T09:45:27.330Z,131.80
2022-11-15T09:48:25.319Z,129.18
2022-11-15T09:51:19.968Z,122.18
2022-11-15T09:54:45.536Z,136.75
2022-11-15T09:56:44.973Z,135.00
2022-11-15T09:59:27.729Z,134.30
2022-11-15T10:02:13.491Z,131.00
2022-11-15T10:04:41.594Z,134.10
2022-11-15T10:07:29.308Z,138.18
2022-11-15T10:10:13.561Z,125.88
2022-11-15T10:12:45.512Z,134.55
2022-11-15T10:15:23.627Z,126.43
2022-11-15T10:18:19.350Z,142.23
2022-11-15T10:21:16.579Z,132.95
2022-11-15T10:23:43.984Z,125.60
2022-11-15T10:26:16.051Z,126.88
2022-11-15T10:28:45.499Z,127.07
2022-11-15T10:31:29.971Z,111.50
2022-11-15T10:34:17.456Z,125.13
2022-11-15T10:36:56.208Z,118.45
2022-11-15T10:39:23.470Z,116.95
2022-11-15T10:41:51.218Z,118.25
2022-11-15T10:44:18.121Z,120.97
2022-11-15T10:47:07.492Z,130.38
2022-11-15T10:49:46.838Z,121.07
2022-11-15T10:52:21.220Z,129.80
2022-11-15T10:54:56.315Z,135.55
2022-11-15T10:57:27.602Z,140.93
2022-11-15T11:00:00.478Z,141.40
2022-11-15T11:03:08.262Z,128.25
2022-11-15T11:08:12.775Z,119.30
2022-11-15T11:11:01.310Z,129.55
2022-11-15T11:13:41.004Z,129.57
2022-11-15T11:16:37.766Z,118.85
2022-11-15T11:19:19.206Z,120.65
2022-11-15T11:21:58.419Z,124.07
2022-11-15T11:24:44.337Z,135.38
2022-11-15T11:27:45.599Z,129.57
2022-11-15T11:30:21.646Z,119.93
2022-11-15T11:33:22.799Z,120.93
2022-11-15T11:35:59.214Z,111.75
2022-11-15T11:38:32.556Z,112.35
2022-11-15T11:41:16.394Z,111.03
2022-11-15T11:44:21.443Z,107.57
2022-11-15T11:46:59.828Z,105.97
2022-11-15T11:49:33.506Z,107.47
2022-11-15T11:52:14.140Z,117.45
2022-11-15T11:55:07.044Z,110.88
2022-11-15T11:57:50.435Z,106.22
2022-11-15T12:00:22.040Z,102.03
2022-11-15T12:03:04.733Z,106.05
2022-11-15T12:05:45.653Z,97.10
2022-11-15T12:08:34.402Z,102.45
2022-11-15T12:11:10.557Z,102.45
2022-11-15T12:13:39.968Z,113.82
2022-11-15T12:16:11.001Z,114.85
2022-11-15T12:18:38.999Z,128.95
2022-11-15T12:21:16.069Z,120.50
2022-11-15T12:23:53.453Z,117.15
2022-11-15T12:26:27.213Z,119.28
2022-11-15T12:29:07.954Z,119.65
2022-11-15T12:31:38.234Z,110.18
2022-11-15T12:34:28.641Z,126.35
2022-11-15T12:36:56.614Z,117.85
2022-11-15T12:40:04.066Z,119.55
2022-11-15T12:42:31.304Z,119.72
2022-11-15T12:45:00.906Z,127.65
2022-11-15T12:47:28.421Z,117.60
2022-11-15T12:49:55.885Z,129.52
2022-11-15T12:52:23.460Z,151.07
2022-11-15T12:54:56.393Z,139.38
2022-11-15T12:57:33.004Z,132.00
2022-11-15T13:00:07.737Z,139.02
2022-11-15T13:02:49.483Z,144.65
2022-11-15T13:05:16.946Z,134.82
2022-11-15T13:07:43.916Z,160.45
2022-11-15T13:10:11.513Z,157.52
2022-11-15T13:12:42.077Z,141.57
2022-11-15T13:15:18.418Z,154.10
2022-11-15T13:17:55.373Z,148.73
2022-11-15T13:20:29.266Z,156.48
2022-11-15T13:23:00.575Z,139.52
2022-11-15T13:25:37.202Z,149.88
2022-11-15T13:28:27.454Z,129.35
2022-11-15T13:31:00.440Z,133.98
2022-11-15T13:33:36.610Z,142.60
2022-11-15T13:36:26.678Z,149.85
2022-11-15T13:39:01.055Z,169.48
2022-11-15T13:41:31.595Z,151.80
2022-11-15T13:44:00.097Z,155.13
2022-11-15T13:46:30.140Z,146.30
2022-11-15T13:49:03.436Z,151.85
2022-11-15T13:51:33.831Z,136.20
2022-11-15T13:54:13.356Z,138.65
2022-11-15T13:56:50.451Z,119.28
2022-11-15T13:59:27.666Z,126.82
2022-11-15T14:02:12.393Z,143.70
2022-11-15T14:04:47.771Z,127.28
2022-11-15T14:07:24.438Z,125.40
2022-11-15T14:09:51.671Z,121.28
2022-11-15T14:12:34.523Z,111.50
2022-11-15T14:15:19.944Z,114.90
2022-11-15T14:17:50.385Z,132.50
2022-11-15T14:20:39.081Z,129.27
2022-11-15T14:23:20.898Z,132.40
2022-11-15T14:25:58.120Z,142.10
2022-11-15T14:28:25.402Z,134.45
2022-11-15T14:30:58.572Z,132.52
2022-11-15T14:33:37.787Z,153.68
2022-11-15T14:36:06.740Z,142.10
2022-11-15T14:38:34.346Z,146.57
2022-11-15T14:41:01.708Z,132.07
2022-11-15T14:43:29.064Z,147.95
2022-11-15T14:45:56.086Z,136.77
2022-11-15T14:48:23.474Z,134.27
2022-11-15T14:50:50.535Z,122.32
2022-11-15T14:53:18.997Z,135.93
2022-11-15T14:55:48.629Z,148.05
2022-11-15T14:58:15.945Z,148.05
2022-11-15T15:00:43.048Z,152.18
2022-11-15T15:03:10.786Z,160.07
2022-11-15T15:05:42.929Z,158.13
2022-11-15T15:08:11.324Z,160.52
2022-11-15T15:10:44.460Z,163.02
2022-11-15T15:13:24.188Z,163.50
2022-11-15T15:15:55.290Z,158.68
2022-11-15T15:18:24.956Z,163.27
2022-11-15T15:21:08.187Z,159.07
2022-11-15T15:23:36.686Z,156.40
2022-11-15T15:26:03.937Z,164.90
2022-11-15T15:28:34.526Z,163.13
2022-11-15T15:31:02.815Z,146.40
2022-11-15T15:33:30.156Z,158.80
2022-11-15T15:35:57.267Z,165.98
2022-11-15T15:38:24.875Z,164.15
2022-11-15T15:40:51.987Z,160.35
2022-11-15T15:43:22.051Z,154.25
2022-11-15T15:45:49.370Z,164.38
2022-11-15T15:48:19.125Z,154.10
2022-11-15T15:50:46.538Z,160.55
2022-11-15T15:53:14.571Z,146.63
2022-11-15T15:55:42.035Z,151.70
2022-11-15T15:58:09.691Z,160.38
2022-11-15T16:00:37.384Z,143.35
2022-11-15T16:03:04.718Z,156.32
2022-11-15T16:05:31.835Z,133.43
2022-11-15T16:07:59.133Z,153.82
2022-11-15T16:10:32.008Z,147.55
2022-11-15T16:13:01.795Z,144.90
2022-11-15T16:15:31.773Z,144.27
2022-11-15T16:18:01.363Z,152.80
2022-11-15T16:20:45.675Z,148.57
2022-11-15T16:23:17.280Z,150.02
2022-11-15T16:25:51.702Z,140.15
2022-11-15T16:28:31.882Z,146.93
2022-11-15T16:31:11.799Z,137.40
2022-11-15T16:33:40.291Z,140.25
2022-11-15T16:36:34.419Z,148.82
2022-11-15T16:39:05.753Z,130.65
2022-11-15T16:41:33.072Z,136.70
2022-11-15T16:44:03.003Z,138.15
2022-11-15T16:46:30.344Z,139.57
2022-11-15T16:49:00.035Z,134.60
2022-11-15T16:51:27.328Z,124.88
2022-11-15T16:53:54.889Z,109.18
2022-11-15T16:56:30.080Z,101.90
2022-11-15T16:58:59.440Z,99.32
2022-11-15T17:01:29.884Z,96.65
2022-11-15T17:03:58.509Z,92.10
2022-11-15T17:06:27.289Z,87.43
2022-11-15T17:08:59.596Z,90.32
2022-11-15T17:11:26.846Z,79.38
2022-11-15T17:13:59.141Z,77.88
2022-11-15T17:16:27.538Z,79.65
2022-11-15T17:18:55.056Z,84.53
2022-11-15T17:21:24.970Z,81.70
2022-11-15T17:23:55.088Z,82.30
2022-11-15T17:26:30.277Z,76.93
2022-11-15T17:29:01.016Z,81.07
2022-11-15T17:31:30.876Z,81.95
2022-11-15T17:34:02.933Z,81.15
2022-11-15T17:36:31.831Z,80.97
2022-11-15T17:39:00.225Z,85.68
2022-11-15T17:41:29.702Z,85.50
2022-11-15T17:43:58.635Z,87.28
2022-11-15T17:46:26.266Z,85.70
2022-11-15T17:48:55.860Z,88.60
2022-11-15T17:51:24.343Z,84.47
2022-11-15T17:53:53.503Z,81.60
2022-11-15T17:56:31.358Z,84.03
2022-11-15T17:59:00.693Z,86.63
2022-11-15T18:01:33.498Z,79.90
2022-11-15T18:04:03.186Z,87.00
2022-11-15T18:06:33.642Z,82.72
2022-11-15T18:09:02.105Z,86.30
2022-11-15T18:11:40.569Z,80.35
2022-11-15T18:14:16.188Z,89.15
2022-11-15T18:16:44.622Z,92.60
2022-11-15T18:19:17.016Z,95.97
2022-11-15T18:22:04.456Z,91.10
2022-11-15T18:24:35.254Z,89.22
2022-11-15T18:27:04.474Z,85.60
2022-11-15T18:29:35.094Z,84.47
2022-11-15T18:32:11.943Z,83.53
2022-11-15T18:34:40.011Z,80.88
2022-11-15T18:37:07.883Z,83.65
2022-11-15T18:39:36.037Z,87.80
2022-11-15T18:42:05.259Z,86.65
2022-11-15T18:44:32.878Z,92.70
2022-11-15T18:47:03.074Z,91.15
2022-11-15T18:49:30.390Z,92.90
2022-11-15T18:51:58.385Z,92.03
2022-11-15T18:54:30.594Z,84.57
2022-11-15T18:57:02.260Z,91.03
2022-11-15T18:59:30.562Z,91.43
2022-11-15T19:01:58.995Z,94.07
2022-11-15T19:04:29.962Z,89.50
2022-11-15T19:07:00.403Z,89.38
2022-11-15T19:09:32.968Z,83.00
2022-11-15T19:12:01.369Z,84.28
2022-11-15T19:14:29.180Z,82.70
2022-11-15T19:16:56.952Z,85.80
2022-11-15T19:19:28.221Z,83.40
2022-11-15T19:21:58.002Z,74.50
2022-11-15T19:24:28.011Z,70.15
2022-11-15T19:26:57.624Z,65.72
2022-11-15T19:29:25.952Z,67.25
2022-11-15T19:31:54.453Z,56.92
2022-11-15T19:34:24.706Z,56.78
2022-11-15T19:36:53.547Z,62.75
2022-11-15T19:39:21.611Z,55.92
2022-11-15T19:41:51.095Z,54.33
2022-11-15T19:44:19.514Z,55.65
2022-11-15T19:46:48.675Z,56.80
2022-11-15T19:49:16.229Z,54.17
2022-11-15T19:51:45.583Z,58.40
2022-11-15T19:54:17.543Z,47.40
2022-11-15T19:56:45.816Z,51.83
2022-11-15T19:59:13.929Z,49.58
2022-11-15T20:01:42.824Z,52.53
2022-11-15T20:04:10.467Z,47.20
2022-11-15T20:06:41.586Z,47.78
2022-11-15T20:09:13.398Z,45.28
2022-11-15T20:11:41.271Z,45.55
2022-11-15T20:14:11.266Z,45.88
2022-11-15T20:16:39.926Z,45.03
2022-11-15T20:19:08.571Z,48.20
2022-11-15T20:21:36.601Z,43.50
2022-11-15T20:24:06.971Z,39.42
2022-11-15T20:26:35.741Z,42.45
2022-11-15T20:29:04.141Z,44.00
2022-11-15T20:31:32.081Z,45.67
2022-11-15T20:33:59.807Z,43.58
2022-11-15T20:36:30.884Z,47.97
2022-11-15T20:39:00.936Z,42.65
2022-11-15T20:41:30.504Z,43.58
2022-11-15T20:43:58.807Z,40.00
2022-11-15T20:46:26.649Z,41.22
2022-11-15T20:48:53.919Z,46.42
2022-11-15T20:51:23.886Z,44.97
2022-11-15T20:53:53.042Z,44.55
2022-11-15T20:56:22.352Z,48.40
2022-11-15T20:58:50.959Z,47.72
2022-11-15T21:01:23.721Z,49.10
2022-11-15T21:03:58.454Z,47.53
2022-11-15T21:06:29.166Z,51.20
2022-11-15T21:09:15.174Z,45.95
2022-11-15T21:14:28.455Z,50.38
2022-11-15T21:16:56.020Z,50.70
2022-11-15T21:19:29.052Z,58.85
2022-11-15T21:22:03.295Z,54.72
2022-11-15T21:24:30.556Z,56.97
2022-11-15T21:26:58.115Z,53.58
2022-11-15T21:29:25.324Z,58.13
2022-11-15T21:31:53.657Z,66.43
2022-11-15T21:34:22.999Z,68.20
2022-11-15T21:36:50.311Z,68.90
2022-11-15T21:39:17.285Z,64.78
2022-11-15T21:41:45.059Z,79.50
2022-11-15T21:44:12.035Z,67.90
2022-11-15T21:46:39.399Z,72.30
2022-11-15T21:49:09.106Z,67.63
2022-11-15T21:51:36.585Z,78.45
2022-11-15T21:54:03.838Z,71.93
2022-11-15T21:56:32.630Z,74.10
2022-11-15T21:59:00.157Z,71.13
2022-11-15T22:01:46.946Z,77.88
2022-11-15T22:04:16.612Z,72.10
2022-11-15T22:06:44.037Z,69.03
2022-11-15T22:09:13.365Z,73.47
2022-11-15T22:11:40.795Z,68.10
2022-11-15T22:14:10.545Z,74.05
2022-11-15T22:16:38.270Z,73.20
2022-11-15T22:19:07.707Z,64.50
2022-11-15T22:21:35.638Z,69.10
2022-11-15T22:24:02.799Z,68.10
2022-11-15T22:26:30.319Z,71.43
2022-11-15T22:29:02.039Z,68.03
2022-11-15T22:31:29.383Z,65.68
2022-11-15T22:33:58.600Z,66.25
2022-11-15T22:36:30.371Z,69.30
2022-11-15T22:39:06.780Z,69.10
2022-11-15T22:41:34.072Z,73.43
2022-11-15T22:44:01.295Z,73.85
2022-11-15T22:46:30.325Z,66.45
2022-11-15T22:49:03.132Z,70.15
2022-11-15T22:51:30.751Z,68.70
2022-11-15T22:53:57.860Z,72.90
2022-11-15T22:56:25.179Z,71.13
2022-11-15T22:58:52.100Z,73.28
2022-11-15T23:01:24.718Z,76.85
2022-11-15T23:03:51.983Z,73.07
2022-11-15T23:06:21.629Z,79.10
2022-11-15T23:08:48.610Z,81.40
2022-11-15T23:11:35.351Z,85.03
2022-11-15T23:16:35.445Z,85.25
2022-11-15T23:19:06.161Z,79.95
2022-11-15T23:21:55.356Z,84.90
2022-11-15T23:24:23.251Z,83.40
2022-11-15T23:26:53.829Z,85.70
2022-11-15T23:29:23.001Z,85.30
2022-11-15T23:32:09.372Z,79.97
2022-11-15T23:34:41.726Z,88.72
2022-11-15T23:37:11.510Z,91.00
2022-11-15T23:39:38.770Z,83.95
2022-11-15T23:42:09.411Z,94.03
2022-11-15T23:44:37.131Z,87.72
2022-11-15T23:47:04.793Z,91.68
2022-11-15T23:49:31.755Z,90.13
2022-11-15T23:51:59.091Z,85.15
2022-11-15T23:54:26.122Z,92.70
2022-11-15T23:56:55.837Z,90.50
2022-11-15T23:59:22.856Z,105.13
